sensor_id;sensor_type;location;lat;lon;timestamp;P1;durP1;ratioP1;P2;durP2;ratioP2
18853;SDS011;9556;49.374;19.446;2024-01-07T00:00:42;2.80;;;1.85;;
18853;SDS011;9556;49.374;19.446;2024-01-07T00:03:09;3.80;;;1.85;;
18853;SDS011;9556;49.374;19.446;2024-01-07T00:05:36;3.90;;;1.98;;
18853;SDS011;9556;49.374;19.446;2024-01-07T00:08:03;4.05;;;2.22;;
18853;SDS011;9556;49.374;19.446;2024-01-07T00:10:31;5.63;;;2.10;;
18853;SDS011;9556;49.374;19.446;2024-01-07T00:12:59;2.58;;;2.00;;
18853;SDS011;9556;49.374;19.446;2024-01-07T00:15:26;3.60;;;2.17;;
18853;SDS011;9556;49.374;19.446;2024-01-07T00:17:53;3.13;;;2.03;;
18853;SDS011;9556;49.374;19.446;2024-01-07T00:20:21;3.95;;;2.10;;
18853;SDS011;9556;49.374;19.446;2024-01-07T00:22:48;3.10;;;1.92;;
18853;SDS011;9556;49.374;19.446;2024-01-07T00:25:15;3.17;;;2.00;;
18853;SDS011;9556;49.374;19.446;2024-01-07T00:27:43;3.20;;;1.70;;
18853;SDS011;9556;49.374;19.446;2024-01-07T00:30:12;2.70;;;1.73;;
18853;SDS011;9556;49.374;19.446;2024-01-07T00:32:40;3.38;;;1.70;;
18853;SDS011;9556;49.374;19.446;2024-01-07T00:35:07;3.38;;;1.55;;
18853;SDS011;9556;49.374;19.446;2024-01-07T00:37:34;3.25;;;1.48;;
18853;SDS011;9556;49.374;19.446;2024-01-07T00:40:03;2.20;;;1.60;;
18853;SDS011;9556;49.374;19.446;2024-01-07T00:42:30;2.22;;;1.63;;
18853;SDS011;9556;49.374;19.446;2024-01-07T00:44:57;2.95;;;1.58;;
18853;SDS011;9556;49.374;19.446;2024-01-07T00:47:26;2.55;;;1.40;;
18853;SDS011;9556;49.374;19.446;2024-01-07T00:49:53;2.53;;;1.45;;
18853;SDS011;9556;49.374;19.446;2024-01-07T00:52:20;2.15;;;1.33;;
18853;SDS011;9556;49.374;19.446;2024-01-07T00:54:48;2.45;;;1.45;;
18853;SDS011;9556;49.374;19.446;2024-01-07T00:57:15;1.88;;;1.30;;
18853;SDS011;9556;49.374;19.446;2024-01-07T00:59:42;1.85;;;1.20;;
18853;SDS011;9556;49.374;19.446;2024-01-07T01:02:09;2.08;;;1.38;;
18853;SDS011;9556;49.374;19.446;2024-01-07T01:04:39;2.65;;;1.50;;
18853;SDS011;9556;49.374;19.446;2024-01-07T01:07:06;2.90;;;1.48;;
18853;SDS011;9556;49.374;19.446;2024-01-07T01:09:33;2.53;;;1.38;;
18853;SDS011;9556;49.374;19.446;2024-01-07T01:12:01;1.65;;;1.17;;
18853;SDS011;9556;49.374;19.446;2024-01-07T01:14:28;1.60;;;1.20;;
18853;SDS011;9556;49.374;19.446;2024-01-07T01:16:55;1.67;;;1.20;;
18853;SDS011;9556;49.374;19.446;2024-01-07T01:19:23;2.28;;;1.30;;
18853;SDS011;9556;49.374;19.446;2024-01-07T01:21:52;2.13;;;1.30;;
18853;SDS011;9556;49.374;19.446;2024-01-07T01:24:19;1.80;;;1.40;;
18853;SDS011;9556;49.374;19.446;2024-01-07T01:26:46;1.70;;;1.20;;
18853;SDS011;9556;49.374;19.446;2024-01-07T01:29:13;1.75;;;1.30;;
18853;SDS011;9556;49.374;19.446;2024-01-07T01:31:40;1.75;;;1.20;;
18853;SDS011;9556;49.374;19.446;2024-01-07T01:34:08;1.45;;;1.10;;
18853;SDS011;9556;49.374;19.446;2024-01-07T01:36:35;1.52;;;0.98;;
18853;SDS011;9556;49.374;19.446;2024-01-07T01:39:03;1.95;;;1.30;;
18853;SDS011;9556;49.374;19.446;2024-01-07T01:41:31;1.90;;;1.30;;
18853;SDS011;9556;49.374;19.446;2024-01-07T01:43:59;1.95;;;1.08;;
18853;SDS011;9556;49.374;19.446;2024-01-07T01:46:26;1.52;;;1.00;;
18853;SDS011;9556;49.374;19.446;2024-01-07T01:48:55;1.65;;;0.90;;
18853;SDS011;9556;49.374;19.446;2024-01-07T01:51:23;1.48;;;1.02;;
18853;SDS011;9556;49.374;19.446;2024-01-07T01:53:50;1.25;;;1.00;;
18853;SDS011;9556;49.374;19.446;2024-01-07T01:56:20;2.08;;;1.10;;
18853;SDS011;9556;49.374;19.446;2024-01-07T01:58:47;1.70;;;1.10;;
18853;SDS011;9556;49.374;19.446;2024-01-07T02:01:14;1.65;;;1.20;;
18853;SDS011;9556;49.374;19.446;2024-01-07T02:03:41;2.30;;;1.30;;
18853;SDS011;9556;49.374;19.446;2024-01-07T02:06:09;1.90;;;1.40;;
18853;SDS011;9556;49.374;19.446;2024-01-07T02:08:37;1.65;;;1.20;;
18853;SDS011;9556;49.374;19.446;2024-01-07T02:11:16;2.08;;;1.27;;
18853;SDS011;9556;49.374;19.446;2024-01-07T02:13:45;2.00;;;1.20;;
18853;SDS011;9556;49.374;19.446;2024-01-07T02:16:13;1.67;;;1.25;;
18853;SDS011;9556;49.374;19.446;2024-01-07T02:18:40;1.50;;;1.15;;
18853;SDS011;9556;49.374;19.446;2024-01-07T02:21:08;1.65;;;1.13;;
18853;SDS011;9556;49.374;19.446;2024-01-07T02:23:36;1.95;;;1.35;;
18853;SDS011;9556;49.374;19.446;2024-01-07T02:26:04;2.03;;;1.33;;
18853;SDS011;9556;49.374;19.446;2024-01-07T02:28:32;1.40;;;1.20;;
18853;SDS011;9556;49.374;19.446;2024-01-07T02:30:59;1.75;;;1.13;;
18853;SDS011;9556;49.374;19.446;2024-01-07T02:33:26;1.98;;;1.20;;
18853;SDS011;9556;49.374;19.446;2024-01-07T02:35:54;1.92;;;1.30;;
18853;SDS011;9556;49.374;19.446;2024-01-07T02:38:21;2.00;;;1.40;;
18853;SDS011;9556;49.374;19.446;2024-01-07T02:40:48;1.85;;;1.23;;
18853;SDS011;9556;49.374;19.446;2024-01-07T02:43:17;2.38;;;1.50;;
18853;SDS011;9556;49.374;19.446;2024-01-07T02:45:44;1.70;;;1.10;;
18853;SDS011;9556;49.374;19.446;2024-01-07T02:48:11;2.30;;;0.98;;
18853;SDS011;9556;49.374;19.446;2024-01-07T02:50:38;1.60;;;1.23;;
18853;SDS011;9556;49.374;19.446;2024-01-07T02:53:06;1.58;;;1.17;;
18853;SDS011;9556;49.374;19.446;2024-01-07T02:55:35;1.42;;;1.10;;
18853;SDS011;9556;49.374;19.446;2024-01-07T02:58:03;2.10;;;1.15;;
18853;SDS011;9556;49.374;19.446;2024-01-07T03:00:31;1.48;;;1.27;;
18853;SDS011;9556;49.374;19.446;2024-01-07T03:02:58;2.03;;;1.20;;
18853;SDS011;9556;49.374;19.446;2024-01-07T03:05:26;1.90;;;1.25;;
18853;SDS011;9556;49.374;19.446;2024-01-07T03:07:57;1.88;;;1.38;;
18853;SDS011;9556;49.374;19.446;2024-01-07T03:10:24;1.60;;;1.20;;
18853;SDS011;9556;49.374;19.446;2024-01-07T03:12:54;1.90;;;1.35;;
18853;SDS011;9556;49.374;19.446;2024-01-07T03:15:21;1.95;;;1.30;;
18853;SDS011;9556;49.374;19.446;2024-01-07T03:17:52;3.03;;;1.58;;
18853;SDS011;9556;49.374;19.446;2024-01-07T03:20:19;1.48;;;1.10;;
18853;SDS011;9556;49.374;19.446;2024-01-07T03:22:46;3.00;;;1.90;;
18853;SDS011;9556;49.374;19.446;2024-01-07T03:25:13;2.50;;;1.60;;
18853;SDS011;9556;49.374;19.446;2024-01-07T03:27:41;2.60;;;1.70;;
18853;SDS011;9556;49.374;19.446;2024-01-07T03:30:09;3.22;;;2.25;;
18853;SDS011;9556;49.374;19.446;2024-01-07T03:32:36;2.55;;;1.65;;
18853;SDS011;9556;49.374;19.446;2024-01-07T03:35:05;3.28;;;1.75;;
18853;SDS011;9556;49.374;19.446;2024-01-07T03:37:33;3.50;;;1.85;;
18853;SDS011;9556;49.374;19.446;2024-01-07T03:40:01;3.20;;;1.77;;
18853;SDS011;9556;49.374;19.446;2024-01-07T03:42:28;3.33;;;1.83;;
18853;SDS011;9556;49.374;19.446;2024-01-07T03:44:55;3.40;;;2.10;;
18853;SDS011;9556;49.374;19.446;2024-01-07T03:47:23;2.85;;;1.40;;
18853;SDS011;9556;49.374;19.446;2024-01-07T03:49:50;1.83;;;1.40;;
18853;SDS011;9556;49.374;19.446;2024-01-07T03:52:18;2.42;;;1.40;;
18853;SDS011;9556;49.374;19.446;2024-01-07T03:54:45;1.63;;;1.10;;
18853;SDS011;9556;49.374;19.446;2024-01-07T03:57:15;2.65;;;1.52;;
18853;SDS011;9556;49.374;19.446;2024-01-07T03:59:42;2.20;;;1.40;;
18853;SDS011;9556;49.374;19.446;2024-01-07T04:02:09;2.35;;;1.48;;
18853;SDS011;9556;49.374;19.446;2024-01-07T04:04:37;1.80;;;1.20;;
18853;SDS011;9556;49.374;19.446;2024-01-07T04:07:04;2.03;;;1.40;;
18853;SDS011;9556;49.374;19.446;2024-01-07T04:09:34;1.73;;;1.27;;
18853;SDS011;9556;49.374;19.446;2024-01-07T04:12:01;3.58;;;1.20;;
18853;SDS011;9556;49.374;19.446;2024-01-07T04:14:31;2.10;;;1.50;;
18853;SDS011;9556;49.374;19.446;2024-01-07T04:16:58;2.03;;;1.40;;
18853;SDS011;9556;49.374;19.446;2024-01-07T04:19:26;1.92;;;1.45;;
18853;SDS011;9556;49.374;19.446;2024-01-07T04:21:53;1.95;;;1.30;;
18853;SDS011;9556;49.374;19.446;2024-01-07T04:24:20;1.90;;;1.27;;
18853;SDS011;9556;49.374;19.446;2024-01-07T04:26:48;1.50;;;1.20;;
18853;SDS011;9556;49.374;19.446;2024-01-07T04:29:15;1.80;;;1.30;;
18853;SDS011;9556;49.374;19.446;2024-01-07T04:31:43;1.92;;;1.38;;
18853;SDS011;9556;49.374;19.446;2024-01-07T04:34:10;2.42;;;1.50;;
18853;SDS011;9556;49.374;19.446;2024-01-07T04:36:37;2.00;;;1.40;;
18853;SDS011;9556;49.374;19.446;2024-01-07T04:39:04;2.25;;;1.50;;
18853;SDS011;9556;49.374;19.446;2024-01-07T04:41:31;2.53;;;1.58;;
18853;SDS011;9556;49.374;19.446;2024-01-07T04:44:00;1.40;;;1.10;;
18853;SDS011;9556;49.374;19.446;2024-01-07T04:46:27;1.83;;;1.30;;
18853;SDS011;9556;49.374;19.446;2024-01-07T04:48:54;2.40;;;1.45;;
18853;SDS011;9556;49.374;19.446;2024-01-07T04:51:21;2.22;;;1.30;;
18853;SDS011;9556;49.374;19.446;2024-01-07T04:53:48;2.10;;;1.30;;
18853;SDS011;9556;49.374;19.446;2024-01-07T04:56:16;1.60;;;1.30;;
18853;SDS011;9556;49.374;19.446;2024-01-07T04:58:43;1.45;;;1.10;;
18853;SDS011;9556;49.374;19.446;2024-01-07T05:01:11;2.55;;;1.50;;
18853;SDS011;9556;49.374;19.446;2024-01-07T05:03:38;2.15;;;1.42;;
18853;SDS011;9556;49.374;19.446;2024-01-07T05:06:07;2.55;;;1.30;;
18853;SDS011;9556;49.374;19.446;2024-01-07T05:08:35;2.10;;;1.30;;
18853;SDS011;9556;49.374;19.446;2024-01-07T05:11:02;2.38;;;1.20;;
18853;SDS011;9556;49.374;19.446;2024-01-07T05:13:30;2.13;;;1.40;;
18853;SDS011;9556;49.374;19.446;2024-01-07T05:15:57;1.65;;;1.35;;
18853;SDS011;9556;49.374;19.446;2024-01-07T05:18:26;2.28;;;1.23;;
18853;SDS011;9556;49.374;19.446;2024-01-07T05:20:53;1.42;;;1.30;;
18853;SDS011;9556;49.374;19.446;2024-01-07T05:23:20;1.50;;;1.23;;
18853;SDS011;9556;49.374;19.446;2024-01-07T05:25:48;1.60;;;1.38;;
18853;SDS011;9556;49.374;19.446;2024-01-07T05:28:15;1.88;;;1.30;;
18853;SDS011;9556;49.374;19.446;2024-01-07T05:30:44;1.95;;;1.40;;
18853;SDS011;9556;49.374;19.446;2024-01-07T05:33:11;1.20;;;1.10;;
18853;SDS011;9556;49.374;19.446;2024-01-07T05:35:40;1.48;;;1.15;;
18853;SDS011;9556;49.374;19.446;2024-01-07T05:38:07;2.33;;;1.52;;
18853;SDS011;9556;49.374;19.446;2024-01-07T05:40:34;1.92;;;1.30;;
18853;SDS011;9556;49.374;19.446;2024-01-07T05:43:01;2.22;;;1.50;;
18853;SDS011;9556;49.374;19.446;2024-01-07T05:45:28;1.73;;;1.30;;
18853;SDS011;9556;49.374;19.446;2024-01-07T05:47:56;1.70;;;1.30;;
18853;SDS011;9556;49.374;19.446;2024-01-07T05:50:23;1.80;;;1.45;;
18853;SDS011;9556;49.374;19.446;2024-01-07T05:52:51;1.27;;;1.02;;
18853;SDS011;9556;49.374;19.446;2024-01-07T05:55:19;2.17;;;1.40;;
18853;SDS011;9556;49.374;19.446;2024-01-07T05:57:46;1.50;;;1.13;;
18853;SDS011;9556;49.374;19.446;2024-01-07T06:00:14;2.13;;;1.48;;
18853;SDS011;9556;49.374;19.446;2024-01-07T06:02:41;1.77;;;1.30;;
18853;SDS011;9556;49.374;19.446;2024-01-07T06:05:08;2.28;;;1.45;;
18853;SDS011;9556;49.374;19.446;2024-01-07T06:07:35;1.95;;;1.40;;
18853;SDS011;9556;49.374;19.446;2024-01-07T06:10:04;1.88;;;1.23;;
18853;SDS011;9556;49.374;19.446;2024-01-07T06:12:32;1.73;;;1.30;;
18853;SDS011;9556;49.374;19.446;2024-01-07T06:14:59;2.13;;;1.50;;
18853;SDS011;9556;49.374;19.446;2024-01-07T06:17:26;2.03;;;1.42;;
18853;SDS011;9556;49.374;19.446;2024-01-07T06:19:53;2.03;;;1.40;;
18853;SDS011;9556;49.374;19.446;2024-01-07T06:22:20;2.63;;;1.63;;
18853;SDS011;9556;49.374;19.446;2024-01-07T06:24:47;2.50;;;1.77;;
18853;SDS011;9556;49.374;19.446;2024-01-07T06:27:16;2.33;;;1.80;;
18853;SDS011;9556;49.374;19.446;2024-01-07T06:29:43;2.35;;;1.80;;
18853;SDS011;9556;49.374;19.446;2024-01-07T06:32:11;1.92;;;1.60;;
18853;SDS011;9556;49.374;19.446;2024-01-07T06:34:38;1.65;;;1.40;;
18853;SDS011;9556;49.374;19.446;2024-01-07T06:37:06;2.20;;;1.60;;
18853;SDS011;9556;49.374;19.446;2024-01-07T06:39:35;2.83;;;1.80;;
18853;SDS011;9556;49.374;19.446;2024-01-07T06:42:03;2.17;;;1.58;;
18853;SDS011;9556;49.374;19.446;2024-01-07T06:44:31;3.92;;;1.40;;
18853;SDS011;9556;49.374;19.446;2024-01-07T06:46:58;2.13;;;1.58;;
18853;SDS011;9556;49.374;19.446;2024-01-07T06:49:26;2.00;;;1.50;;
18853;SDS011;9556;49.374;19.446;2024-01-07T06:51:53;2.13;;;1.70;;
18853;SDS011;9556;49.374;19.446;2024-01-07T06:54:20;2.60;;;1.80;;
18853;SDS011;9556;49.374;19.446;2024-01-07T06:56:47;2.65;;;1.75;;
18853;SDS011;9556;49.374;19.446;2024-01-07T06:59:14;2.28;;;1.80;;
18853;SDS011;9556;49.374;19.446;2024-01-07T07:01:43;2.10;;;1.52;;
18853;SDS011;9556;49.374;19.446;2024-01-07T07:04:10;2.25;;;1.70;;
18853;SDS011;9556;49.374;19.446;2024-01-07T07:06:37;2.28;;;1.65;;
18853;SDS011;9556;49.374;19.446;2024-01-07T07:09:04;2.38;;;1.63;;
18853;SDS011;9556;49.374;19.446;2024-01-07T07:11:31;2.30;;;1.52;;
18853;SDS011;9556;49.374;19.446;2024-01-07T07:13:59;2.10;;;1.60;;
18853;SDS011;9556;49.374;19.446;2024-01-07T07:16:26;2.42;;;1.50;;
18853;SDS011;9556;49.374;19.446;2024-01-07T07:18:54;2.28;;;1.70;;
18853;SDS011;9556;49.374;19.446;2024-01-07T07:21:21;2.50;;;1.60;;
18853;SDS011;9556;49.374;19.446;2024-01-07T07:23:49;1.83;;;1.55;;
18853;SDS011;9556;49.374;19.446;2024-01-07T07:26:16;2.40;;;1.33;;
18853;SDS011;9556;49.374;19.446;2024-01-07T07:28:43;2.70;;;1.60;;
18853;SDS011;9556;49.374;19.446;2024-01-07T07:31:11;2.65;;;1.85;;
18853;SDS011;9556;49.374;19.446;2024-01-07T07:33:38;2.13;;;1.50;;
18853;SDS011;9556;49.374;19.446;2024-01-07T07:36:07;1.98;;;1.45;;
18853;SDS011;9556;49.374;19.446;2024-01-07T07:38:35;2.45;;;1.60;;
18853;SDS011;9556;49.374;19.446;2024-01-07T07:41:02;2.20;;;1.60;;
18853;SDS011;9556;49.374;19.446;2024-01-07T07:43:29;1.58;;;1.38;;
18853;SDS011;9556;49.374;19.446;2024-01-07T07:45:56;3.10;;;1.65;;
18853;SDS011;9556;49.374;19.446;2024-01-07T07:48:24;10.75;;;7.00;;
18853;SDS011;9556;49.374;19.446;2024-01-07T07:50:53;70.22;;;39.45;;
18853;SDS011;9556;49.374;19.446;2024-01-07T07:53:21;17.55;;;11.07;;
18853;SDS011;9556;49.374;19.446;2024-01-07T07:55:48;11.60;;;7.00;;
18853;SDS011;9556;49.374;19.446;2024-01-07T07:58:16;8.65;;;5.82;;
18853;SDS011;9556;49.374;19.446;2024-01-07T08:00:43;8.93;;;5.90;;
18853;SDS011;9556;49.374;19.446;2024-01-07T08:03:11;8.35;;;5.82;;
18853;SDS011;9556;49.374;19.446;2024-01-07T08:05:38;7.00;;;4.45;;
18853;SDS011;9556;49.374;19.446;2024-01-07T08:08:06;6.70;;;4.53;;
18853;SDS011;9556;49.374;19.446;2024-01-07T08:10:35;6.15;;;3.90;;
18853;SDS011;9556;49.374;19.446;2024-01-07T08:13:02;7.03;;;4.10;;
18853;SDS011;9556;49.374;19.446;2024-01-07T08:15:29;6.63;;;4.45;;
18853;SDS011;9556;49.374;19.446;2024-01-07T08:17:56;6.53;;;4.20;;
18853;SDS011;9556;49.374;19.446;2024-01-07T08:20:24;5.85;;;3.80;;
18853;SDS011;9556;49.374;19.446;2024-01-07T08:22:51;6.93;;;4.05;;
18853;SDS011;9556;49.374;19.446;2024-01-07T08:25:18;7.05;;;3.80;;
18853;SDS011;9556;49.374;19.446;2024-01-07T08:27:47;6.13;;;3.67;;
18853;SDS011;9556;49.374;19.446;2024-01-07T08:30:14;4.88;;;3.50;;
18853;SDS011;9556;49.374;19.446;2024-01-07T08:32:41;6.82;;;3.65;;
18853;SDS011;9556;49.374;19.446;2024-01-07T08:35:09;6.10;;;4.07;;
18853;SDS011;9556;49.374;19.446;2024-01-07T08:37:36;5.65;;;3.60;;
18853;SDS011;9556;49.374;19.446;2024-01-07T08:40:04;7.55;;;4.80;;
18853;SDS011;9556;49.374;19.446;2024-01-07T08:42:34;6.03;;;4.40;;
18853;SDS011;9556;49.374;19.446;2024-01-07T08:45:03;4.88;;;3.78;;
18853;SDS011;9556;49.374;19.446;2024-01-07T08:47:31;8.05;;;4.70;;
18853;SDS011;9556;49.374;19.446;2024-01-07T08:49:58;7.40;;;4.78;;
18853;SDS011;9556;49.374;19.446;2024-01-07T08:52:25;11.90;;;5.78;;
18853;SDS011;9556;49.374;19.446;2024-01-07T08:54:53;11.70;;;4.85;;
18853;SDS011;9556;49.374;19.446;2024-01-07T08:57:20;17.33;;;9.35;;
18853;SDS011;9556;49.374;19.446;2024-01-07T08:59:47;14.77;;;10.15;;
18853;SDS011;9556;49.374;19.446;2024-01-07T09:02:16;19.23;;;9.57;;
18853;SDS011;9556;49.374;19.446;2024-01-07T09:04:43;14.25;;;6.90;;
18853;SDS011;9556;49.374;19.446;2024-01-07T09:07:10;13.45;;;5.05;;
18853;SDS011;9556;49.374;19.446;2024-01-07T09:09:38;14.45;;;6.40;;
18853;SDS011;9556;49.374;19.446;2024-01-07T09:12:05;10.52;;;6.22;;
18853;SDS011;9556;49.374;19.446;2024-01-07T09:14:32;8.57;;;5.68;;
18853;SDS011;9556;49.374;19.446;2024-01-07T09:17:00;10.15;;;6.85;;
18853;SDS011;9556;49.374;19.446;2024-01-07T09:19:29;8.90;;;5.70;;
18853;SDS011;9556;49.374;19.446;2024-01-07T09:21:56;15.82;;;7.78;;
18853;SDS011;9556;49.374;19.446;2024-01-07T09:24:23;10.80;;;7.07;;
18853;SDS011;9556;49.374;19.446;2024-01-07T09:26:50;7.72;;;4.60;;
18853;SDS011;9556;49.374;19.446;2024-01-07T09:29:18;8.93;;;6.00;;
18853;SDS011;9556;49.374;19.446;2024-01-07T09:31:45;6.90;;;4.50;;
18853;SDS011;9556;49.374;19.446;2024-01-07T09:34:12;7.22;;;4.35;;
18853;SDS011;9556;49.374;19.446;2024-01-07T09:36:41;9.15;;;4.50;;
18853;SDS011;9556;49.374;19.446;2024-01-07T09:39:08;8.27;;;4.03;;
18853;SDS011;9556;49.374;19.446;2024-01-07T09:41:35;6.80;;;3.90;;
18853;SDS011;9556;49.374;19.446;2024-01-07T09:44:04;6.50;;;3.97;;
18853;SDS011;9556;49.374;19.446;2024-01-07T09:46:32;5.97;;;3.90;;
18853;SDS011;9556;49.374;19.446;2024-01-07T09:49:01;7.57;;;3.78;;
18853;SDS011;9556;49.374;19.446;2024-01-07T09:51:28;10.45;;;3.90;;
18853;SDS011;9556;49.374;19.446;2024-01-07T09:53:58;5.88;;;4.05;;
18853;SDS011;9556;49.374;19.446;2024-01-07T09:56:29;6.15;;;3.90;;
18853;SDS011;9556;49.374;19.446;2024-01-07T09:58:59;5.60;;;3.75;;
18853;SDS011;9556;49.374;19.446;2024-01-07T10:01:41;6.40;;;3.83;;
18853;SDS011;9556;49.374;19.446;2024-01-07T10:04:08;9.68;;;3.70;;
18853;SDS011;9556;49.374;19.446;2024-01-07T10:06:35;6.30;;;4.60;;
18853;SDS011;9556;49.374;19.446;2024-01-07T10:09:05;7.65;;;4.40;;
18853;SDS011;9556;49.374;19.446;2024-01-07T10:11:32;7.30;;;4.35;;
18853;SDS011;9556;49.374;19.446;2024-01-07T10:13:59;6.55;;;4.25;;
18853;SDS011;9556;49.374;19.446;2024-01-07T10:16:27;6.88;;;4.63;;
18853;SDS011;9556;49.374;19.446;2024-01-07T10:18:55;5.50;;;4.00;;
18853;SDS011;9556;49.374;19.446;2024-01-07T10:21:22;7.05;;;4.00;;
18853;SDS011;9556;49.374;19.446;2024-01-07T10:23:49;6.80;;;4.32;;
18853;SDS011;9556;49.374;19.446;2024-01-07T10:26:19;5.72;;;3.90;;
18853;SDS011;9556;49.374;19.446;2024-01-07T10:28:46;7.72;;;4.50;;
18853;SDS011;9556;49.374;19.446;2024-01-07T10:31:13;7.75;;;4.07;;
18853;SDS011;9556;49.374;19.446;2024-01-07T10:33:41;12.95;;;7.25;;
18853;SDS011;9556;49.374;19.446;2024-01-07T10:36:08;8.98;;;5.70;;
18853;SDS011;9556;49.374;19.446;2024-01-07T10:38:36;9.10;;;5.20;;
18853;SDS011;9556;49.374;19.446;2024-01-07T10:41:04;10.95;;;5.00;;
18853;SDS011;9556;49.374;19.446;2024-01-07T10:43:33;8.15;;;5.30;;
18853;SDS011;9556;49.374;19.446;2024-01-07T10:46:02;12.45;;;4.63;;
18853;SDS011;9556;49.374;19.446;2024-01-07T10:48:31;6.75;;;4.45;;
18853;SDS011;9556;49.374;19.446;2024-01-07T10:50:59;8.00;;;4.63;;
18853;SDS011;9556;49.374;19.446;2024-01-07T10:53:27;19.30;;;4.53;;
18853;SDS011;9556;49.374;19.446;2024-01-07T10:55:58;10.82;;;4.20;;
18853;SDS011;9556;49.374;19.446;2024-01-07T10:58:26;14.35;;;4.70;;
18853;SDS011;9556;49.374;19.446;2024-01-07T11:00:55;22.02;;;4.47;;
18853;SDS011;9556;49.374;19.446;2024-01-07T11:03:27;24.02;;;4.85;;
18853;SDS011;9556;49.374;19.446;2024-01-07T11:05:56;26.40;;;4.97;;
18853;SDS011;9556;49.374;19.446;2024-01-07T11:08:25;19.73;;;4.50;;
18853;SDS011;9556;49.374;19.446;2024-01-07T11:10:55;20.08;;;4.30;;
18853;SDS011;9556;49.374;19.446;2024-01-07T11:13:33;13.43;;;3.90;;
18853;SDS011;9556;49.374;19.446;2024-01-07T11:16:02;12.55;;;3.83;;
18853;SDS011;9556;49.374;19.446;2024-01-07T11:18:37;11.00;;;3.88;;
18853;SDS011;9556;49.374;19.446;2024-01-07T11:21:05;10.02;;;3.67;;
18853;SDS011;9556;49.374;19.446;2024-01-07T11:23:32;11.63;;;4.13;;
18853;SDS011;9556;49.374;19.446;2024-01-07T11:26:02;14.77;;;4.25;;
18853;SDS011;9556;49.374;19.446;2024-01-07T11:28:42;9.30;;;3.80;;
18853;SDS011;9556;49.374;19.446;2024-01-07T11:31:11;6.55;;;3.72;;
18853;SDS011;9556;49.374;19.446;2024-01-07T11:33:38;11.10;;;5.72;;
18853;SDS011;9556;49.374;19.446;2024-01-07T11:36:05;11.88;;;5.82;;
18853;SDS011;9556;49.374;19.446;2024-01-07T11:38:33;10.13;;;5.80;;
18853;SDS011;9556;49.374;19.446;2024-01-07T11:41:02;13.13;;;4.50;;
18853;SDS011;9556;49.374;19.446;2024-01-07T11:43:31;7.68;;;4.45;;
18853;SDS011;9556;49.374;19.446;2024-01-07T11:45:59;6.25;;;3.58;;
18853;SDS011;9556;49.374;19.446;2024-01-07T11:48:28;8.63;;;3.95;;
18853;SDS011;9556;49.374;19.446;2024-01-07T11:50:55;9.95;;;5.50;;
18853;SDS011;9556;49.374;19.446;2024-01-07T11:53:22;13.25;;;5.55;;
18853;SDS011;9556;49.374;19.446;2024-01-07T11:55:49;16.48;;;9.23;;
18853;SDS011;9556;49.374;19.446;2024-01-07T11:58:17;17.42;;;9.15;;
18853;SDS011;9556;49.374;19.446;2024-01-07T12:00:44;8.05;;;4.78;;
18853;SDS011;9556;49.374;19.446;2024-01-07T12:03:11;8.30;;;4.68;;
18853;SDS011;9556;49.374;19.446;2024-01-07T12:05:40;7.40;;;4.70;;
18853;SDS011;9556;49.374;19.446;2024-01-07T12:08:07;6.75;;;4.50;;
18853;SDS011;9556;49.374;19.446;2024-01-07T12:10:34;6.55;;;4.72;;
18853;SDS011;9556;49.374;19.446;2024-01-07T12:13:01;10.73;;;4.55;;
18853;SDS011;9556;49.374;19.446;2024-01-07T12:15:29;8.00;;;4.60;;
18853;SDS011;9556;49.374;19.446;2024-01-07T12:17:58;9.48;;;4.28;;
18853;SDS011;9556;49.374;19.446;2024-01-07T12:20:26;7.47;;;4.50;;
18853;SDS011;9556;49.374;19.446;2024-01-07T12:22:56;6.65;;;4.20;;
18853;SDS011;9556;49.374;19.446;2024-01-07T12:25:24;8.10;;;4.82;;
18853;SDS011;9556;49.374;19.446;2024-01-07T12:27:51;6.30;;;4.43;;
18853;SDS011;9556;49.374;19.446;2024-01-07T12:30:19;7.55;;;4.53;;
18853;SDS011;9556;49.374;19.446;2024-01-07T12:32:46;7.32;;;3.70;;
18853;SDS011;9556;49.374;19.446;2024-01-07T12:35:14;7.43;;;4.30;;
18853;SDS011;9556;49.374;19.446;2024-01-07T12:37:41;5.65;;;3.63;;
18853;SDS011;9556;49.374;19.446;2024-01-07T12:40:10;7.40;;;4.03;;
18853;SDS011;9556;49.374;19.446;2024-01-07T12:42:38;5.55;;;3.70;;
18853;SDS011;9556;49.374;19.446;2024-01-07T12:45:10;5.93;;;3.85;;
18853;SDS011;9556;49.374;19.446;2024-01-07T12:47:38;6.68;;;4.05;;
18853;SDS011;9556;49.374;19.446;2024-01-07T12:50:06;9.57;;;4.25;;
18853;SDS011;9556;49.374;19.446;2024-01-07T12:52:34;5.38;;;3.70;;
18853;SDS011;9556;49.374;19.446;2024-01-07T12:55:02;5.97;;;3.75;;
18853;SDS011;9556;49.374;19.446;2024-01-07T12:57:31;5.25;;;3.65;;
18853;SDS011;9556;49.374;19.446;2024-01-07T12:59:58;6.03;;;4.53;;
18853;SDS011;9556;49.374;19.446;2024-01-07T13:02:26;7.30;;;4.00;;
18853;SDS011;9556;49.374;19.446;2024-01-07T13:04:53;6.68;;;3.70;;
18853;SDS011;9556;49.374;19.446;2024-01-07T13:07:20;11.77;;;5.55;;
18853;SDS011;9556;49.374;19.446;2024-01-07T13:09:48;6.60;;;4.55;;
18853;SDS011;9556;49.374;19.446;2024-01-07T13:12:17;7.43;;;4.18;;
18853;SDS011;9556;49.374;19.446;2024-01-07T13:14:46;6.07;;;4.10;;
18853;SDS011;9556;49.374;19.446;2024-01-07T13:17:13;8.02;;;4.07;;
18853;SDS011;9556;49.374;19.446;2024-01-07T13:19:40;8.63;;;4.20;;
18853;SDS011;9556;49.374;19.446;2024-01-07T13:22:08;8.18;;;4.70;;
18853;SDS011;9556;49.374;19.446;2024-01-07T13:24:35;10.40;;;4.07;;
18853;SDS011;9556;49.374;19.446;2024-01-07T13:27:03;9.00;;;4.25;;
18853;SDS011;9556;49.374;19.446;2024-01-07T13:29:30;7.40;;;4.80;;
18853;SDS011;9556;49.374;19.446;2024-01-07T13:31:58;8.45;;;4.07;;
18853;SDS011;9556;49.374;19.446;2024-01-07T13:34:26;9.35;;;5.15;;
18853;SDS011;9556;49.374;19.446;2024-01-07T13:36:53;9.65;;;5.82;;
18853;SDS011;9556;49.374;19.446;2024-01-07T13:39:20;8.52;;;5.22;;
18853;SDS011;9556;49.374;19.446;2024-01-07T13:41:48;9.32;;;4.50;;
18853;SDS011;9556;49.374;19.446;2024-01-07T13:44:15;8.48;;;5.18;;
18853;SDS011;9556;49.374;19.446;2024-01-07T13:46:44;7.15;;;4.63;;
18853;SDS011;9556;49.374;19.446;2024-01-07T13:49:13;5.72;;;4.28;;
18853;SDS011;9556;49.374;19.446;2024-01-07T13:51:40;7.38;;;4.43;;
18853;SDS011;9556;49.374;19.446;2024-01-07T13:54:08;8.65;;;4.20;;
18853;SDS011;9556;49.374;19.446;2024-01-07T13:56:38;5.75;;;3.90;;
18853;SDS011;9556;49.374;19.446;2024-01-07T13:59:07;7.82;;;4.00;;
18853;SDS011;9556;49.374;19.446;2024-01-07T14:01:34;5.75;;;4.05;;
18853;SDS011;9556;49.374;19.446;2024-01-07T14:04:02;7.85;;;4.35;;
18853;SDS011;9556;49.374;19.446;2024-01-07T14:06:30;7.15;;;3.75;;
18853;SDS011;9556;49.374;19.446;2024-01-07T14:08:58;5.13;;;3.47;;
18853;SDS011;9556;49.374;19.446;2024-01-07T14:11:25;5.85;;;3.80;;
18853;SDS011;9556;49.374;19.446;2024-01-07T14:13:53;5.38;;;3.70;;
18853;SDS011;9556;49.374;19.446;2024-01-07T14:16:20;5.72;;;3.55;;
18853;SDS011;9556;49.374;19.446;2024-01-07T14:18:48;5.82;;;3.60;;
18853;SDS011;9556;49.374;19.446;2024-01-07T14:21:15;6.75;;;4.32;;
18853;SDS011;9556;49.374;19.446;2024-01-07T14:23:44;8.52;;;4.20;;
18853;SDS011;9556;49.374;19.446;2024-01-07T14:26:11;5.38;;;3.85;;
18853;SDS011;9556;49.374;19.446;2024-01-07T14:28:40;8.43;;;4.32;;
18853;SDS011;9556;49.374;19.446;2024-01-07T14:31:07;6.30;;;4.38;;
18853;SDS011;9556;49.374;19.446;2024-01-07T14:33:34;13.38;;;7.80;;
18853;SDS011;9556;49.374;19.446;2024-01-07T14:36:02;17.70;;;10.25;;
18853;SDS011;9556;49.374;19.446;2024-01-07T14:38:29;11.00;;;6.47;;
18853;SDS011;9556;49.374;19.446;2024-01-07T14:40:58;12.95;;;8.30;;
18853;SDS011;9556;49.374;19.446;2024-01-07T14:43:25;9.57;;;6.10;;
18853;SDS011;9556;49.374;19.446;2024-01-07T14:45:52;8.13;;;5.22;;
18853;SDS011;9556;49.374;19.446;2024-01-07T14:48:19;8.27;;;4.95;;